Time;durP1;ratioP1;P1;durP2;ratioP2;P2;SDS_P1;SDS_P2;PMS_P1;PMS_P2;Temp;Humidity;BMP_temperature;BMP_pressure;BME280_temperature;BME280_humidity;BME280_pressure;Samples;Min_cycle;Max_cycle;Signal;HPM_P1;HPM_P2
2023/07/28 00:02:17;;;;;;;3.33;2.10;;;;;;;14.94;100.00;100061.50;5007152;28;20209;-44
2023/07/28 00:04:43;;;;;;;2.47;2.20;;;;;;;14.86;100.00;100067.41;5007463;28;20543;-45
2023/07/28 00:07:08;;;;;;;2.78;2.45;;;;;;;14.83;100.00;100079.28;5007133;28;20205;-44
2023/07/28 00:09:34;;;;;;;2.50;2.30;;;;;;;14.79;100.00;100077.75;5007561;28;20276;-44
2023/07/28 00:12:00;;;;;;;3.08;2.30;;;;;;;14.83;100.00;100076.59;5007908;28;20223;-45
2023/07/28 00:14:27;;;;;;;2.70;2.50;;;;;;;14.86;100.00;100077.34;5005635;28;20304;-44
2023/07/28 00:16:53;;;;;;;2.80;2.40;;;;;;;14.92;100.00;100090.41;5022732;28;20197;-44
2023/07/28 00:19:20;;;;;;;3.47;2.17;;;;;;;14.96;100.00;100086.53;5007561;28;20228;-46
2023/07/28 00:21:48;;;;;;;2.40;2.20;;;;;;;14.97;100.00;100083.72;5006859;28;20656;-45
2023/07/28 00:24:13;;;;;;;2.30;2.20;;;;;;;14.98;100.00;100090.88;5004651;28;20246;-42
2023/07/28 00:26:39;;;;;;;2.45;2.25;;;;;;;14.92;100.00;100080.47;5009337;28;20671;-43
2023/07/28 00:29:06;;;;;;;3.28;2.45;;;;;;;14.95;100.00;100079.41;5004676;28;20181;-44
2023/07/28 00:31:32;;;;;;;1.92;1.83;;;;;;;14.96;100.00;100083.84;5006764;28;20554;-43
2023/07/28 00:33:58;;;;;;;2.33;2.17;;;;;;;14.93;100.00;100086.75;5003567;28;20187;-42
2023/07/28 00:36:23;;;;;;;2.28;2.05;;;;;;;15.01;100.00;100095.19;5009477;28;20257;-42
2023/07/28 00:38:49;;;;;;;2.90;2.65;;;;;;;14.95;100.00;100095.59;5013217;28;20270;-44
2023/07/28 00:41:15;;;;;;;2.42;2.22;;;;;;;14.99;100.00;100097.13;5009461;28;20177;-44
2023/07/28 00:43:41;;;;;;;2.30;2.10;;;;;;;15.00;100.00;100101.56;5009573;28;20188;-43
2023/07/28 00:46:06;;;;;;;2.78;2.20;;;;;;;15.02;100.00;100104.97;5007831;28;20212;-42
2023/07/28 00:48:32;;;;;;;2.10;2.00;;;;;;;14.91;100.00;100096.75;5026096;28;20639;-41
2023/07/28 00:50:58;;;;;;;2.88;2.60;;;;;;;14.67;100.00;100094.78;5011147;28;20191;-43
2023/07/28 00:53:24;;;;;;;2.20;2.10;;;;;;;14.61;100.00;100097.88;5027474;28;20215;-43
2023/07/28 00:55:50;;;;;;;2.88;2.58;;;;;;;14.62;100.00;100091.50;5007634;28;20647;-43
2023/07/28 00:58:16;;;;;;;3.63;2.88;;;;;;;14.70;100.00;100099.97;5007470;28;20188;-44
2023/07/28 01:00:42;;;;;;;1.92;1.70;;;;;;;14.79;100.00;100095.78;4994448;28;20893;-44
2023/07/28 01:03:08;;;;;;;4.20;2.35;;;;;;;14.84;100.00;100091.78;5012919;28;20185;-41
2023/07/28 01:05:44;;;;;;;2.30;2.20;;;;;;;14.88;100.00;100099.69;5025393;28;20184;-43
2023/07/28 01:08:45;;;;;;;2.42;2.20;;;;;;;14.92;100.00;100104.75;5007851;28;20177;-39
2023/07/28 01:11:11;;;;;;;2.05;1.95;;;;;;;14.96;100.00;100103.59;4973576;28;20223;-44
2023/07/28 01:13:36;;;;;;;4.32;2.08;;;;;;;15.01;100.00;100103.28;5024871;28;20188;-41
2023/07/28 01:16:02;;;;;;;2.75;2.55;;;;;;;14.91;100.00;100108.44;5025259;28;20217;-42
2023/07/28 01:18:28;;;;;;;2.60;2.40;;;;;;;14.83;100.00;100108.94;5021609;28;20196;-41
2023/07/28 01:20:57;;;;;;;2.38;2.17;;;;;;;14.87;100.00;100114.13;4992268;28;20403;-43
2023/07/28 01:23:37;;;;;;;2.50;2.30;;;;;;;14.81;100.00;100115.41;5009734;28;20220;-42
2023/07/28 01:26:07;;;;;;;2.72;2.47;;;;;;;14.82;100.00;100112.63;5007599;28;20674;-42
2023/07/28 01:28:34;;;;;;;2.97;2.70;;;;;;;14.83;100.00;100119.72;5009607;28;20215;-43
2023/07/28 01:31:05;;;;;;;2.28;2.08;;;;;;;14.80;100.00;100121.75;5008775;28;20219;-39
2023/07/28 01:33:31;;;;;;;7.63;2.10;;;;;;;14.88;100.00;100113.16;5009183;28;20520;-40
2023/07/28 01:35:58;;;;;;;1.90;1.80;;;;;;;14.89;100.00;100115.78;5009194;28;20279;-40
2023/07/28 01:38:24;;;;;;;2.60;2.40;;;;;;;14.89;100.00;100115.78;5008851;28;20212;-42
2023/07/28 01:40:49;;;;;;;2.30;2.20;;;;;;;14.72;100.00;100116.91;5024838;28;20173;-42
2023/07/28 01:43:15;;;;;;;7.45;2.30;;;;;;;14.79;100.00;100109.25;5009028;28;20587;-43
2023/07/28 01:45:40;;;;;;;2.60;2.10;;;;;;;14.80;100.00;100117.25;5004767;28;20180;-42
2023/07/28 01:48:06;;;;;;;2.05;1.85;;;;;;;14.84;100.00;100105.25;5007900;28;20176;-40
2023/07/28 01:50:31;;;;;;;2.40;2.17;;;;;;;14.83;100.00;100103.56;5009383;28;20378;-42
2023/07/28 01:52:57;;;;;;;2.08;1.77;;;;;;;14.83;100.00;100102.69;5006187;28;20190;-41
2023/07/28 01:55:22;;;;;;;2.38;2.28;;;;;;;14.79;100.00;100109.25;5020704;28;20189;-41
2023/07/28 01:57:55;;;;;;;2.80;2.60;;;;;;;14.69;100.00;100103.59;5006768;28;20687;-45
2023/07/28 02:00:22;;;;;;;2.55;2.35;;;;;;;14.74;100.00;100112.28;5005423;28;20664;-44
2023/07/28 02:02:49;;;;;;;2.53;2.33;;;;;;;14.74;100.00;100093.41;5025523;28;20192;-41
2023/07/28 02:05:14;;;;;;;2.00;1.90;;;;;;;14.80;100.00;100093.00;5026031;28;20201;-42
2023/07/28 02:07:40;;;;;;;3.85;2.67;;;;;;;14.74;100.00;100109.56;5011043;28;20725;-43
2023/07/28 02:10:06;;;;;;;2.67;2.40;;;;;;;14.81;100.00;100102.78;5010645;28;20226;-45
2023/07/28 02:12:31;;;;;;;2.90;2.70;;;;;;;14.78;100.00;100108.41;5010794;28;20642;-47
2023/07/28 02:14:57;;;;;;;4.57;2.65;;;;;;;14.82;100.00;100111.75;5025703;28;20187;-43
2023/07/28 02:17:22;;;;;;;3.05;2.85;;;;;;;14.73;100.00;100104.28;5010671;28;20250;-44
2023/07/28 02:19:48;;;;;;;3.50;3.20;;;;;;;14.75;100.00;100119.38;5025580;28;20710;-44
2023/07/28 02:22:13;;;;;;;3.00;2.80;;;;;;;14.77;100.00;100111.19;5025678;28;20651;-43
2023/07/28 02:24:39;;;;;;;3.35;2.92;;;;;;;14.74;100.00;100108.72;5025902;28;20168;-44
2023/07/28 02:27:05;;;;;;;3.42;2.90;;;;;;;14.76;100.00;100114.88;5025745;28;20404;-45
2023/07/28 02:29:30;;;;;;;2.75;2.60;;;;;;;14.77;100.00;100112.03;5025663;28;20628;-48
2023/07/28 02:31:56;;;;;;;3.58;2.92;;;;;;;14.76;100.00;100113.03;5025469;28;20169;-41
2023/07/28 02:34:21;;;;;;;2.72;2.53;;;;;;;14.80;100.00;100103.78;5025393;28;20173;-43
2023/07/28 02:36:47;;;;;;;3.30;3.10;;;;;;;14.81;100.00;100113.56;5025524;28;20224;-47
2023/07/28 02:39:13;;;;;;;2.72;2.53;;;;;;;14.86;100.00;100120.50;5008791;28;20203;-42
2023/07/28 02:41:38;;;;;;;3.67;3.38;;;;;;;14.81;100.00;100116.28;5010387;28;20185;-42
2023/07/28 02:44:04;;;;;;;3.70;3.40;;;;;;;14.82;100.00;100112.63;5025344;28;20239;-45
2023/07/28 02:46:30;;;;;;;4.45;4.05;;;;;;;14.78;100.00;100124.59;5009968;28;20205;-46
2023/07/28 02:48:55;;;;;;;4.10;3.80;;;;;;;14.74;100.00;100114.97;5010468;28;20327;-44
2023/07/28 02:51:21;;;;;;;3.83;3.53;;;;;;;14.69;100.00;100129.72;5010376;28;20256;-44
2023/07/28 02:53:47;;;;;;;3.83;3.10;;;;;;;14.71;100.00;100125.06;5025413;28;20208;-46
2023/07/28 02:56:12;;;;;;;3.75;3.45;;;;;;;14.67;100.00;100132.53;5008879;28;20287;-44
2023/07/28 02:58:38;;;;;;;3.60;3.10;;;;;;;14.72;100.00;100134.91;5027691;28;20188;-44
2023/07/28 03:01:04;;;;;;;3.50;3.28;;;;;;;14.72;100.00;100138.47;5044989;28;20650;-43
2023/07/28 03:03:34;;;;;;;3.83;3.20;;;;;;;14.71;100.00;100143.94;5045208;28;20459;-42
2023/07/28 03:06:00;;;;;;;3.38;3.17;;;;;;;14.73;100.00;100136.63;5023379;28;20342;-43
2023/07/28 03:08:25;;;;;;;3.25;2.83;;;;;;;14.75;100.00;100140.94;5010315;28;20165;-44
2023/07/28 03:10:58;;;;;;;3.13;2.92;;;;;;;14.73;100.00;100142.03;5025148;28;20199;-44
2023/07/28 03:13:26;;;;;;;2.90;2.70;;;;;;;14.73;100.00;100136.63;5010158;28;20179;-47
2023/07/28 03:15:52;;;;;;;2.92;2.72;;;;;;;14.68;100.00;100138.78;5009593;28;20227;-44
2023/07/28 03:18:21;;;;;;;2.70;2.50;;;;;;;14.72;100.00;100141.16;5024506;28;20760;-44
2023/07/28 03:20:47;;;;;;;3.17;2.80;;;;;;;14.72;100.00;100141.16;5008174;28;20271;-44
2023/07/28 03:23:13;;;;;;;4.22;3.90;;;;;;;14.57;100.00;100147.56;5024088;28;20270;-42
2023/07/28 03:25:38;;;;;;;4.03;3.72;;;;;;;14.54;100.00;100143.22;5018853;28;20185;-43
2023/07/28 03:28:04;;;;;;;4.00;2.90;;;;;;;14.62;100.00;100142.72;5009339;28;20184;-49
2023/07/28 03:30:30;;;;;;;3.80;3.50;;;;;;;14.53;100.00;100129.84;5024267;28;20176;-41
2023/07/28 03:32:56;;;;;;;3.58;3.38;;;;;;;14.52;100.00;100142.47;5024674;28;20281;-44
2023/07/28 03:35:21;;;;;;;3.33;3.05;;;;;;;14.47;100.00;100141.00;5029783;28;20715;-45
2023/07/28 03:37:56;;;;;;;3.42;3.08;;;;;;;14.41;100.00;100145.84;5024702;28;20769;-44
2023/07/28 03:40:22;;;;;;;2.70;2.50;;;;;;;14.51;100.00;100150.63;5009337;28;20320;-45
2023/07/28 03:42:52;;;;;;;3.45;3.13;;;;;;;14.48;100.00;100153.53;5024698;28;20176;-44
2023/07/28 03:45:17;;;;;;;3.03;2.78;;;;;;;14.51;100.00;100148.78;5016749;28;20195;-48
2023/07/28 03:47:43;;;;;;;3.50;3.20;;;;;;;14.46;100.00;100144.69;5029030;28;20206;-49
2023/07/28 03:50:09;;;;;;;3.28;3.08;;;;;;;14.41;100.00;100148.53;5044447;28;20435;-45
2023/07/28 03:52:34;;;;;;;3.17;2.88;;;;;;;14.41;100.00;100153.94;5014481;28;20640;-44
2023/07/28 03:55:00;;;;;;;4.07;3.78;;;;;;;14.38;100.00;100146.03;5023541;28;20180;-45
2023/07/28 03:57:25;;;;;;;3.53;3.33;;;;;;;14.29;100.00;100143.94;5024275;28;20232;-43
2023/07/28 03:59:51;;;;;;;5.70;4.00;;;;;;;14.27;100.00;100151.25;5024331;28;20247;-43
2023/07/28 04:02:17;;;;;;;3.50;3.25;;;;;;;14.30;100.00;100144.78;5009140;28;20177;-44
2023/07/28 04:04:42;;;;;;;3.80;3.50;;;;;;;14.27;100.00;100155.78;5009003;28;20177;-48
2023/07/28 04:07:08;;;;;;;3.60;3.40;;;;;;;14.31;100.00;100157.31;5007813;28;20200;-45
2023/07/28 04:09:33;;;;;;;4.07;3.78;;;;;;;14.31;100.00;100160.88;5027739;28;20274;-44
2023/07/28 04:11:59;;;;;;;3.83;3.53;;;;;;;14.32;100.00;100167.13;5047846;28;20675;-45
2023/07/28 04:14:25;;;;;;;3.80;3.50;;;;;;;14.38;100.00;100162.19;5032417;28;20219;-41
2023/07/28 04:16:50;;;;;;;3.70;3.45;;;;;;;14.43;100.00;100165.50;5031425;28;20218;-44
2023/07/28 04:19:16;;;;;;;3.35;3.10;;;;;;;14.49;100.00;100163.34;5032671;28;20236;-43
2023/07/28 04:21:41;;;;;;;4.47;4.07;;;;;;;14.38;100.00;100154.13;5012848;28;20200;-48
2023/07/28 04:24:08;;;;;;;4.10;3.80;;;;;;;14.39;100.00;100163.09;5034336;28;20230;-44
2023/07/28 04:26:38;;;;;;;4.05;3.58;;;;;;;14.49;100.00;100160.66;5047236;28;20207;-44
2023/07/28 04:29:03;;;;;;;2.95;2.75;;;;;;;14.53;100.00;100167.56;5032703;28;20627;-43
2023/07/28 04:31:30;;;;;;;4.22;3.88;;;;;;;14.40;100.00;100165.66;5047719;28;20208;-49
2023/07/28 04:34:05;;;;;;;4.15;3.85;;;;;;;14.37;100.00;100168.56;5031436;28;20191;-44
2023/07/28 04:37:03;;;;;;;3.90;3.60;;;;;;;14.43;100.00;100175.41;5017240;28;20262;-48
2023/07/28 04:39:39;;;;;;;3.60;3.30;;;;;;;14.51;100.00;100177.59;5027020;28;20318;-46
2023/07/28 04:42:05;;;;;;;3.55;3.33;;;;;;;14.53;100.00;100175.66;5025253;28;20206;-48
2023/07/28 04:44:30;;;;;;;3.42;3.22;;;;;;;14.59;100.00;100178.00;5037699;28;20180;-44
2023/07/28 04:47:00;;;;;;;3.70;3.40;;;;;;;14.60;100.00;100177.00;5011125;28;20203;-43
2023/07/28 04:49:26;;;;;;;4.15;3.83;;;;;;;14.57;100.00;100177.22;5031922;28;20279;-44
2023/07/28 04:52:20;;;;;;;3.33;3.05;;;;;;;14.67;100.00;100181.06;5012370;28;20189;-44
2023/07/28 04:54:51;;;;;;;4.20;3.80;;;;;;;14.66;100.00;100189.25;5012542;28;20419;-44
2023/07/28 04:57:19;;;;;;;4.43;4.03;;;;;;;14.56;100.00;100188.97;5010953;28;20200;-43
2023/07/28 04:59:45;;;;;;;4.30;4.00;;;;;;;14.58;100.00;100196.00;5021869;28;20619;-44
2023/07/28 05:02:10;;;;;;;3.20;3.00;;;;;;;14.70;100.00;100194.31;5028706;28;20173;-42
2023/07/28 05:04:36;;;;;;;3.78;3.58;;;;;;;14.81;100.00;100199.88;5012271;28;20526;-49
2023/07/28 05:07:03;;;;;;;3.80;3.38;;;;;;;15.06;100.00;100202.78;5027348;28;20199;-50
2023/07/28 05:09:29;;;;;;;3.80;3.50;;;;;;;15.30;100.00;100197.56;5027346;28;20181;-46
2023/07/28 05:11:55;;;;;;;5.00;4.55;;;;;;;15.53;100.00;100202.25;5027139;28;20554;-45
2023/07/28 05:14:21;;;;;;;4.88;4.47;;;;;;;15.68;100.00;100199.44;5010664;28;20176;-48
2023/07/28 05:16:49;;;;;;;5.00;4.50;;;;;;;15.82;100.00;100202.09;5027189;28;20354;-42
2023/07/28 05:19:20;;;;;;;6.45;4.28;;;;;;;15.69;100.00;100193.94;5012224;28;20188;-43
2023/07/28 05:22:18;;;;;;;5.82;5.10;;;;;;;15.50;100.00;100197.03;4959028;28;20189;-44
2023/07/28 05:24:48;;;;;;;6.95;5.65;;;;;;;15.45;100.00;100191.97;5007857;28;20531;-43
2023/07/28 05:27:14;;;;;;;4.80;4.47;;;;;;;15.59;100.00;100192.84;5027490;28;20688;-42
2023/07/28 05:29:43;;;;;;;5.88;5.38;;;;;;;15.85;100.00;100196.47;5018402;28;20169;-42
2023/07/28 05:32:09;;;;;;;5.97;4.97;;;;;;;16.01;100.00;100204.38;5027457;28;20181;-44
2023/07/28 05:34:49;;;;;;;6.55;5.88;;;;;;;16.11;100.00;100201.84;5027419;28;20361;-43
2023/07/28 05:37:14;;;;;;;6.35;5.70;;;;;;;15.88;100.00;100188.16;5027163;28;20247;-44
2023/07/28 05:39:40;;;;;;;7.25;6.28;;;;;;;15.61;100.00;100186.38;5027200;28;20208;-42
2023/07/28 05:42:06;;;;;;;6.60;5.53;;;;;;;15.89;100.00;100197.13;5010679;28;20226;-43
2023/07/28 05:44:34;;;;;;;7.32;6.55;;;;;;;15.90;100.00;100191.63;5024274;28;20243;-43
2023/07/28 05:46:59;;;;;;;7.10;5.75;;;;;;;15.98;100.00;100209.97;5025050;28;20200;-45
2023/07/28 05:49:26;;;;;;;6.25;5.65;;;;;;;16.24;100.00;100208.97;5012696;28;20499;-44
2023/07/28 05:51:51;;;;;;;7.25;6.03;;;;;;;16.12;100.00;100217.97;5021878;28;20187;-47
2023/07/28 05:54:17;;;;;;;6.65;5.88;;;;;;;16.34;100.00;100211.88;5040783;28;20219;-42
2023/07/28 05:56:43;;;;;;;7.90;5.82;;;;;;;16.23;100.00;100217.22;5045542;28;20494;-44
2023/07/28 05:59:09;;;;;;;9.50;6.40;;;;;;;16.27;100.00;100216.88;5045350;28;20208;-42
2023/07/28 06:01:35;;;;;;;9.15;5.30;;;;;;;16.35;100.00;100210.03;5020596;28;20257;-44
2023/07/28 06:04:32;;;;;;;5.57;5.10;;;;;;;16.62;100.00;100213.44;5010729;28;20185;-42
2023/07/28 06:07:00;;;;;;;6.57;4.68;;;;;;;17.03;100.00;100204.13;5026561;28;20288;-45
2023/07/28 06:09:26;;;;;;;5.40;4.70;;;;;;;17.22;100.00;100206.28;5026497;28;20734;-44
2023/07/28 06:11:52;;;;;;;6.03;5.15;;;;;;;16.99;100.00;100194.53;5029424;28;20646;-43
2023/07/28 06:14:18;;;;;;;5.07;4.20;;;;;;;16.85;100.00;100200.94;5021668;28;20184;-42
2023/07/28 06:16:43;;;;;;;5.97;5.00;;;;;;;16.81;100.00;100204.00;5020954;28;20570;-45
2023/07/28 06:19:09;;;;;;;6.32;4.68;;;;;;;16.85;100.00;100203.66;5045674;28;20312;-46
2023/07/28 06:21:36;;;;;;;9.05;5.10;;;;;;;16.73;100.00;100203.69;5035847;28;20188;-44
2023/07/28 06:24:02;;;;;;;5.70;5.10;;;;;;;16.76;100.00;100201.59;5036016;28;20235;-45
2023/07/28 06:26:28;;;;;;;6.22;5.38;;;;;;;16.74;100.00;100208.97;5025743;28;20227;-45
2023/07/28 06:28:53;;;;;;;5.00;4.32;;;;;;;16.96;100.00;100216.38;5014692;28;20209;-45
2023/07/28 06:31:19;;;;;;;5.60;4.45;;;;;;;17.26;100.00;100215.91;5010712;28;20586;-45
2023/07/28 06:33:46;;;;;;;5.32;4.80;;;;;;;17.33;100.00;100223.56;5027826;28;20185;-44
2023/07/28 06:36:12;;;;;;;8.23;4.35;;;;;;;17.16;100.00;100216.72;5045563;28;20686;-41
2023/07/28 06:38:39;;;;;;;4.00;3.60;;;;;;;17.65;100.00;100212.97;5020770;28;20208;-43
2023/07/28 06:41:04;;;;;;;6.53;4.20;;;;;;;17.82;100.00;100203.53;5014208;28;20262;-48
2023/07/28 06:43:31;;;;;;;4.25;3.85;;;;;;;17.89;100.00;100213.78;5032560;28;20591;-45
2023/07/28 06:46:00;;;;;;;3.88;3.53;;;;;;;17.52;100.00;100212.22;5013593;28;20203;-48
2023/07/28 06:48:26;;;;;;;4.53;3.58;;;;;;;17.61;100.00;100201.50;5010266;28;20180;-44
2023/07/28 06:50:52;;;;;;;8.48;3.97;;;;;;;17.56;100.00;100202.84;5019076;28;20189;-47
2023/07/28 06:53:18;;;;;;;6.05;3.72;;;;;;;17.82;100.00;100209.84;5025276;28;20319;-44
2023/07/28 06:55:44;;;;;;;5.35;3.95;;;;;;;18.21;100.00;100201.38;5027941;28;20169;-43
2023/07/28 06:58:10;;;;;;;5.15;3.58;;;;;;;18.73;100.00;100206.13;5024853;28;20185;-48
2023/07/28 07:00:35;;;;;;;6.03;3.40;;;;;;;18.91;100.00;100190.22;5008583;28;20318;-39
2023/07/28 07:03:01;;;;;;;3.90;3.42;;;;;;;18.77;100.00;100184.19;5008040;28;20181;-48
2023/07/28 07:05:27;;;;;;;4.60;3.50;;;;;;;18.78;100.00;100189.50;5022173;28;20188;-47
2023/07/28 07:07:54;;;;;;;4.45;3.20;;;;;;;18.37;100.00;100209.16;5004589;28;20196;-47
2023/07/28 07:10:20;;;;;;;5.43;3.03;;;;;;;18.31;100.00;100200.50;5022666;28;20261;-47
2023/07/28 07:12:46;;;;;;;3.50;3.20;;;;;;;18.12;100.00;100200.25;5005782;28;20599;-46
2023/07/28 07:15:11;;;;;;;3.53;3.22;;;;;;;18.78;100.00;100210.34;5006909;28;20180;-48
2023/07/28 07:17:37;;;;;;;4.20;2.97;;;;;;;19.33;100.00;100206.59;5005107;28;20319;-48
2023/07/28 07:20:03;;;;;;;3.72;3.03;;;;;;;19.67;100.00;100198.25;5005989;28;20646;-46
2023/07/28 07:22:29;;;;;;;4.00;2.70;;;;;;;19.69;98.49;100192.69;5007040;28;20618;-45
2023/07/28 07:24:56;;;;;;;3.47;2.78;;;;;;;19.62;95.81;100197.81;5005642;28;21851;-46
2023/07/28 07:27:26;;;;;;;2.85;2.65;;;;;;;19.37;94.97;100204.47;5007155;28;20636;-47
2023/07/28 07:29:52;;;;;;;3.17;2.47;;;;;;;20.35;95.47;100198.66;5006587;28;20656;-46
2023/07/28 07:32:18;;;;;;;4.00;3.10;;;;;;;20.44;90.95;100193.38;5005197;28;20212;-46
2023/07/28 07:34:43;;;;;;;6.03;2.55;;;;;;;20.96;88.62;100189.53;5005410;28;20192;-47
2023/07/28 07:37:09;;;;;;;2.58;2.25;;;;;;;21.06;86.02;100189.56;5022231;28;20204;-46
2023/07/28 07:39:36;;;;;;;4.72;2.60;;;;;;;20.50;85.15;100190.97;5006534;28;20223;-45
2023/07/28 07:42:01;;;;;;;5.15;3.10;;;;;;;19.25;86.09;100206.38;5004385;28;20195;-46
2023/07/28 07:44:27;;;;;;;3.75;2.97;;;;;;;18.74;88.02;100213.28;5006538;28;20177;-46
2023/07/28 07:46:53;;;;;;;4.53;2.78;;;;;;;18.37;91.05;100230.84;5010710;28;20281;-47
2023/07/28 07:49:19;;;;;;;4.22;3.10;;;;;;;18.06;91.94;100234.16;5010751;28;20189;-46
2023/07/28 07:51:44;;;;;;;2.92;2.35;;;;;;;18.66;93.78;100242.03;5010478;28;20541;-47
2023/07/28 07:54:10;;;;;;;4.22;2.95;;;;;;;18.47;93.62;100251.66;5010216;28;20185;-47
2023/07/28 07:56:36;;;;;;;3.17;2.58;;;;;;;18.29;93.81;100250.44;5009946;28;20685;-49
2023/07/28 07:59:01;;;;;;;2.60;2.40;;;;;;;18.61;94.85;100260.56;5011110;28;20211;-45
2023/07/28 08:01:27;;;;;;;2.67;2.45;;;;;;;18.81;95.82;100259.81;5010086;28;20192;-48
2023/07/28 08:03:52;;;;;;;3.03;2.50;;;;;;;18.76;95.99;100267.44;5007160;28;20181;-46
2023/07/28 08:06:18;;;;;;;3.53;2.40;;;;;;;18.76;95.63;100261.13;5011511;28;20232;-46
2023/07/28 08:08:43;;;;;;;3.38;2.63;;;;;;;18.82;96.26;100271.53;5010695;28;20678;-46
2023/07/28 08:11:09;;;;;;;3.65;2.45;;;;;;;19.62;96.98;100270.31;5010422;28;20205;-45
2023/07/28 08:13:34;;;;;;;3.53;2.47;;;;;;;19.78;93.20;100267.19;5009894;28;20230;-47
2023/07/28 08:16:00;;;;;;;4.05;2.95;;;;;;;19.73;91.34;100257.56;5009528;28;20705;-45
2023/07/28 08:18:25;;;;;;;3.55;2.60;;;;;;;19.20;92.00;100270.22;5009886;28;20192;-46
2023/07/28 08:20:51;;;;;;;2.70;2.50;;;;;;;19.81;90.28;100266.91;5009105;28;20184;-44
2023/07/28 08:23:17;;;;;;;4.28;2.35;;;;;;;19.86;87.45;100259.22;5009132;28;20208;-48
2023/07/28 08:25:42;;;;;;;2.65;2.22;;;;;;;19.86;86.57;100260.09;5009029;28;20227;-45
2023/07/28 08:28:09;;;;;;;3.08;2.35;;;;;;;19.46;87.09;100263.47;5009999;28;20177;-46
2023/07/28 08:30:34;;;;;;;4.32;2.45;;;;;;;18.83;87.56;100274.13;5009768;28;20839;-46
2023/07/28 08:33:00;;;;;;;3.17;2.45;;;;;;;18.85;88.20;100276.72;5008533;28;20196;-47
2023/07/28 08:35:25;;;;;;;3.83;3.08;;;;;;;19.02;90.09;100278.91;5007912;28;20251;-45
2023/07/28 08:37:51;;;;;;;4.38;3.10;;;;;;;19.40;90.09;100284.88;5007198;28;20627;-46
2023/07/28 08:40:17;;;;;;;3.17;2.70;;;;;;;18.66;90.61;100291.75;5009405;28;20205;-45
2023/07/28 08:42:44;;;;;;;4.25;3.70;;;;;;;18.67;91.65;100292.59;5007730;28;20187;-45
2023/07/28 08:45:10;;;;;;;5.57;3.60;;;;;;;18.90;92.93;100293.50;5009014;28;20188;-47
2023/07/28 08:47:37;;;;;;;5.43;4.40;;;;;;;18.50;94.33;100297.53;5009189;28;20213;-46
2023/07/28 08:50:03;;;;;;;4.50;3.85;;;;;;;18.92;94.84;100308.66;5006511;28;20193;-44
2023/07/28 08:52:29;;;;;;;4.70;4.30;;;;;;;18.29;94.85;100304.69;5008659;28;20192;-46
2023/07/28 08:54:54;;;;;;;5.35;4.32;;;;;;;18.03;96.26;100309.44;5007485;28;20189;-47
2023/07/28 08:57:20;;;;;;;5.45;4.47;;;;;;;18.09;98.68;100317.94;5023654;28;20205;-44
2023/07/28 08:59:49;;;;;;;5.28;4.78;;;;;;;17.80;100.00;100328.31;5009317;28;20208;-46
2023/07/28 09:02:18;;;;;;;5.90;5.18;;;;;;;17.70;100.00;100330.84;5008424;28;20266;-46
2023/07/28 09:04:44;;;;;;;6.00;5.32;;;;;;;17.47;100.00;100335.31;5008483;28;20558;-45
2023/07/28 09:07:09;;;;;;;6.32;5.35;;;;;;;17.29;100.00;100331.25;5007857;28;20627;-45
2023/07/28 09:09:38;;;;;;;5.38;4.88;;;;;;;17.22;100.00;100333.53;5009270;28;20224;-45
2023/07/28 09:12:04;;;;;;;6.97;5.10;;;;;;;17.38;100.00;100326.97;5006287;28;20204;-44
2023/07/28 09:14:30;;;;;;;5.63;5.07;;;;;;;17.99;100.00;100324.19;5009078;28;20180;-46
2023/07/28 09:17:06;;;;;;;5.65;5.05;;;;;;;17.75;100.00;100326.91;5007589;28;20547;-45
2023/07/28 09:19:31;;;;;;;7.53;4.50;;;;;;;17.32;100.00;100324.72;5009681;28;20220;-46
2023/07/28 09:21:59;;;;;;;5.25;4.38;;;;;;;17.28;100.00;100318.69;5008712;28;20234;-44
2023/07/28 09:24:33;;;;;;;7.13;4.97;;;;;;;17.17;100.00;100332.16;5008024;28;20215;-47
2023/07/28 09:27:00;;;;;;;5.85;4.53;;;;;;;17.15;100.00;100337.69;5008334;28;20204;-45
2023/07/28 09:29:29;;;;;;;6.35;5.25;;;;;;;17.53;100.00;100341.22;5009196;28;20256;-47
2023/07/28 09:32:04;;;;;;;5.45;4.47;;;;;;;18.31;100.00;100332.53;5009722;28;20241;-45
2023/07/28 09:34:29;;;;;;;5.47;4.40;;;;;;;17.83;100.00;100332.66;5006643;28;20595;-45
2023/07/28 09:36:56;;;;;;;6.07;4.53;;;;;;;17.54;100.00;100327.56;5006366;28;20215;-44
2023/07/28 09:39:23;;;;;;;8.52;5.47;;;;;;;18.27;100.00;100321.06;5024556;28;20292;-48
2023/07/28 09:41:48;;;;;;;8.23;5.40;;;;;;;18.51;100.00;100331.81;5009812;28;20188;-48
2023/07/28 09:44:15;;;;;;;5.22;4.72;;;;;;;18.54;100.00;100330.69;5008411;28;20191;-45
2023/07/28 09:46:50;;;;;;;7.13;4.32;;;;;;;18.78;100.00;100327.91;5008684;28;20216;-46
2023/07/28 09:49:34;;;;;;;5.95;4.40;;;;;;;19.00;98.64;100324.34;5006443;28;20184;-46
2023/07/28 09:52:07;;;;;;;4.68;4.03;;;;;;;19.18;97.34;100327.38;5007492;28;20184;-46
2023/07/28 09:54:39;;;;;;;6.13;3.92;;;;;;;19.37;95.63;100329.44;5007519;28;20181;-47
2023/07/28 09:57:13;;;;;;;5.47;4.13;;;;;;;19.34;93.95;100324.25;5008179;28;20207;-45
2023/07/28 09:59:40;;;;;;;6.28;3.58;;;;;;;19.36;93.41;100314.13;5007828;28;20224;-47
2023/07/28 10:02:08;;;;;;;5.18;3.95;;;;;;;19.48;93.35;100320.38;5008504;28;20205;-46
2023/07/28 10:04:34;;;;;;;6.15;4.25;;;;;;;19.48;93.62;100317.66;5007801;28;20213;-45
2023/07/28 10:07:01;;;;;;;6.50;3.88;;;;;;;19.28;93.00;100316.63;5007495;28;20729;-45
2023/07/28 10:09:30;;;;;;;6.80;3.65;;;;;;;19.75;92.44;100317.25;5008332;28;20184;-46
2023/07/28 10:11:56;;;;;;;4.35;2.97;;;;;;;19.75;91.28;100315.38;5008403;28;20233;-46
2023/07/28 10:14:30;;;;;;;5.28;3.20;;;;;;;19.40;89.92;100312.88;5006849;28;20183;-46
2023/07/28 10:16:58;;;;;;;3.97;3.20;;;;;;;18.71;90.47;100316.66;5006418;28;20231;-45
2023/07/28 10:19:27;;;;;;;3.78;3.05;;;;;;;18.40;92.80;100329.09;5005661;28;20240;-46
2023/07/28 10:22:00;;;;;;;3.10;2.70;;;;;;;18.41;93.04;100325.41;5005902;28;20193;-47
2023/07/28 10:24:54;;;;;;;4.72;3.42;;;;;;;18.45;93.17;100332.28;5005203;28;20243;-45
2023/07/28 10:27:35;;;;;;;4.22;3.40;;;;;;;18.43;94.45;100345.16;5007932;28;20192;-47
2023/07/28 10:30:04;;;;;;;5.05;2.90;;;;;;;19.21;93.88;100337.13;5006424;28;20638;-47
2023/07/28 10:32:41;;;;;;;2.42;2.22;;;;;;;19.63;89.75;100326.38;5006991;28;20184;-47
2023/07/28 10:35:25;;;;;;;3.95;2.60;;;;;;;19.86;87.81;100314.47;5006759;28;20188;-47
2023/07/28 10:37:53;;;;;;;2.95;2.70;;;;;;;19.66;86.27;100307.97;5006764;28;20574;-45
2023/07/28 10:40:38;;;;;;;4.55;2.80;;;;;;;19.12;87.76;100311.59;5004471;28;20220;-47
2023/07/28 10:43:04;;;;;;;5.72;3.40;;;;;;;18.74;90.00;100323.69;5006372;28;20212;-46
2023/07/28 10:45:31;;;;;;;3.38;3.08;;;;;;;18.91;91.50;100331.38;5007105;28;20246;-45
2023/07/28 10:47:59;;;;;;;4.45;3.38;;;;;;;18.70;92.35;100335.78;5002278;28;20177;-45
2023/07/28 10:50:32;;;;;;;3.90;2.70;;;;;;;18.93;92.81;100331.22;5006800;28;20549;-46
2023/07/28 10:52:57;;;;;;;2.92;2.70;;;;;;;19.20;91.34;100333.56;5005623;28;20196;-47
2023/07/28 10:55:25;;;;;;;3.42;2.83;;;;;;;18.62;91.43;100325.53;5005455;28;20534;-47
2023/07/28 10:57:53;;;;;;;2.95;2.75;;;;;;;18.47;92.99;100337.59;5005924;28;20188;-45
2023/07/28 11:00:21;;;;;;;5.18;2.95;;;;;;;18.76;92.63;100335.31;5005737;28;20213;-47
2023/07/28 11:02:52;;;;;;;3.22;2.50;;;;;;;18.75;92.55;100341.69;5006170;28;20259;-45
2023/07/28 11:05:32;;;;;;;4.50;2.92;;;;;;;19.08;92.99;100337.28;5006457;28;20204;-47
2023/07/28 11:08:00;;;;;;;3.30;3.00;;;;;;;19.14;91.73;100334.06;5005539;28;20175;-46
2023/07/28 11:10:30;;;;;;;3.67;2.80;;;;;;;19.23;91.34;100337.88;5021451;23;20228;-48
2023/07/28 11:13:01;;;;;;;3.25;2.40;;;;;;;19.48;90.12;100331.25;5015586;28;20184;-47
2023/07/28 11:15:26;;;;;;;2.78;2.30;;;;;;;19.46;88.05;100328.69;5017579;28;20180;-45
2023/07/28 11:17:52;;;;;;;3.80;2.38;;;;;;;19.54;85.92;100326.16;5017835;28;20200;-43
2023/07/28 11:20:19;;;;;;;2.72;2.13;;;;;;;19.62;84.22;100316.53;5019864;28;20692;-44
2023/07/28 11:22:56;;;;;;;2.72;2.42;;;;;;;19.63;84.76;100315.50;5024105;28;20176;-48